createdAt,value
2023-01-23T00:01:05.183Z,3.69
2023-01-23T00:03:32.248Z,3.71
2023-01-23T00:05:59.515Z,3.70
2023-01-23T00:08:26.700Z,3.71
2023-01-23T00:10:53.385Z,3.69
2023-01-23T00:13:20.866Z,3.68
2023-01-23T00:15:47.894Z,3.70
2023-01-23T00:18:14.932Z,3.70
2023-01-23T00:20:41.781Z,3.67
2023-01-23T00:23:09.077Z,3.72
2023-01-23T00:25:36.174Z,3.72
2023-01-23T00:28:03.213Z,3.69
2023-01-23T00:30:29.704Z,3.70
2023-01-23T00:32:56.233Z,3.70
2023-01-23T00:35:23.020Z,3.69
2023-01-23T00:37:49.515Z,3.69
2023-01-23T00:40:16.222Z,3.69
2023-01-23T00:42:42.684Z,3.68
2023-01-23T00:45:09.394Z,3.70
2023-01-23T00:47:35.879Z,3.62
2023-01-23T00:50:02.418Z,3.68
2023-01-23T00:52:29.327Z,3.70
2023-01-23T00:54:55.762Z,3.68
2023-01-23T00:57:22.195Z,3.69
2023-01-23T00:59:48.690Z,3.70
2023-01-23T01:02:15.129Z,3.65
2023-01-23T01:04:41.601Z,3.66
2023-01-23T01:07:08.081Z,3.68
2023-01-23T01:09:34.578Z,3.70
2023-01-23T01:12:01.050Z,3.70
2023-01-23T01:14:27.484Z,3.68
2023-01-23T01:16:53.933Z,3.66
2023-01-23T01:19:20.361Z,3.65
2023-01-23T01:21:47.300Z,3.64
2023-01-23T01:24:13.809Z,3.63
2023-01-23T01:26:40.568Z,3.61
2023-01-23T01:29:07.101Z,3.67
2023-01-23T01:31:33.761Z,3.65
2023-01-23T01:34:00.335Z,3.70
2023-01-23T01:36:27.462Z,3.68
2023-01-23T01:38:54.002Z,3.69
2023-01-23T01:41:20.558Z,3.70
2023-01-23T01:43:47.093Z,3.70
2023-01-23T01:46:19.412Z,3.69
2023-01-23T01:48:57.309Z,3.68
2023-01-23T01:51:26.475Z,3.67
2023-01-23T01:54:02.503Z,3.67
2023-01-23T01:56:32.147Z,3.65
2023-01-23T01:59:01.792Z,3.66
2023-01-23T02:01:28.470Z,3.69
2023-01-23T02:03:55.497Z,3.70
2023-01-23T02:06:22.404Z,3.70
2023-01-23T02:09:04.598Z,3.68
2023-01-23T02:11:31.484Z,3.70
2023-01-23T02:13:58.009Z,3.73
2023-01-23T02:16:29.469Z,3.69
2023-01-23T02:19:02.092Z,3.69
2023-01-23T02:21:29.573Z,3.67
2023-01-23T02:24:01.811Z,3.69
2023-01-23T02:26:32.901Z,3.70
2023-01-23T02:28:59.557Z,3.68
2023-01-23T02:31:26.343Z,3.69
2023-01-23T02:33:57.813Z,3.71
2023-01-23T02:36:28.782Z,3.60
2023-01-23T02:39:13.347Z,3.67
2023-01-23T02:41:45.454Z,3.68
2023-01-23T02:44:12.231Z,3.67
2023-01-23T02:46:39.015Z,3.64
2023-01-23T02:49:05.744Z,3.67
2023-01-23T02:51:32.560Z,3.64
2023-01-23T02:53:59.240Z,3.64
2023-01-23T02:56:25.714Z,3.63
2023-01-23T02:59:10.719Z,3.63
2023-01-23T03:01:37.279Z,3.64
2023-01-23T03:04:06.477Z,3.61
2023-01-23T03:06:37.912Z,3.58
2023-01-23T03:09:10.696Z,3.64
2023-01-23T03:11:39.201Z,3.62
2023-01-23T03:14:08.112Z,3.58
2023-01-23T03:16:36.638Z,3.61
2023-01-23T03:19:08.803Z,3.63
2023-01-23T03:21:40.467Z,3.62
2023-01-23T03:24:09.719Z,3.65
2023-01-23T03:26:41.942Z,3.63
2023-01-23T03:29:31.211Z,3.67
2023-01-23T03:31:57.684Z,3.67
2023-01-23T03:34:24.116Z,3.66
2023-01-23T03:36:50.632Z,3.63
2023-01-23T03:39:35.794Z,3.66
2023-01-23T03:42:02.264Z,3.65
2023-01-23T03:44:28.705Z,3.63
2023-01-23T03:46:55.130Z,3.63
2023-01-23T03:49:22.081Z,3.65
2023-01-23T03:51:48.659Z,3.64
2023-01-23T03:54:15.162Z,3.67
2023-01-23T03:56:42.545Z,3.64
2023-01-23T03:59:09.266Z,3.67
2023-01-23T04:01:36.667Z,3.65
2023-01-23T04:04:03.813Z,3.66
2023-01-23T04:06:30.505Z,3.66
2023-01-23T04:08:58.224Z,3.63
2023-01-23T04:11:26.588Z,3.69
2023-01-23T04:13:54.431Z,3.70
2023-01-23T04:16:22.792Z,3.69
2023-01-23T04:18:50.543Z,3.70
2023-01-23T04:21:17.356Z,3.70
2023-01-23T04:23:44.103Z,3.70
2023-01-23T04:26:10.514Z,3.69
2023-01-23T04:28:36.999Z,3.69
2023-01-23T04:31:03.906Z,3.70
2023-01-23T04:33:30.492Z,3.67
2023-01-23T04:36:00.314Z,3.68
2023-01-23T04:38:28.532Z,3.69
2023-01-23T04:40:55.626Z,3.68
2023-01-23T04:43:22.353Z,3.67
2023-01-23T04:45:53.445Z,3.67
2023-01-23T04:48:19.995Z,3.68
2023-01-23T04:50:46.450Z,3.65
2023-01-23T04:53:14.032Z,3.62
2023-01-23T04:55:40.995Z,3.64
2023-01-23T04:58:07.611Z,3.68
2023-01-23T05:00:34.096Z,3.57
2023-01-23T05:03:01.161Z,3.69
2023-01-23T05:05:27.672Z,3.67
2023-01-23T05:07:54.106Z,3.67
2023-01-23T05:10:21.199Z,3.70
2023-01-23T05:12:47.808Z,3.71
2023-01-23T05:15:14.261Z,3.72
2023-01-23T05:17:40.725Z,3.71
2023-01-23T05:20:08.082Z,3.71
2023-01-23T05:22:34.511Z,3.69
2023-01-23T05:25:01.466Z,3.69
2023-01-23T05:27:28.017Z,3.68
2023-01-23T05:29:54.429Z,3.69
2023-01-23T05:32:20.937Z,3.67
2023-01-23T05:34:47.362Z,3.68
2023-01-23T05:37:13.848Z,3.72
2023-01-23T05:39:40.318Z,3.69
2023-01-23T05:42:06.775Z,3.67
2023-01-23T05:44:33.630Z,3.66
2023-01-23T05:47:00.108Z,3.69
2023-01-23T05:49:26.527Z,3.71
2023-01-23T05:51:52.982Z,3.70
2023-01-23T05:54:19.494Z,3.71
2023-01-23T05:56:45.974Z,3.70
2023-01-23T05:59:12.526Z,3.67
2023-01-23T06:01:38.982Z,3.67
2023-01-23T06:04:05.412Z,3.67
2023-01-23T06:06:32.023Z,3.68
2023-01-23T06:08:59.649Z,3.69
2023-01-23T06:11:26.187Z,3.71
2023-01-23T06:13:52.695Z,3.71
2023-01-23T06:16:19.200Z,3.70
2023-01-23T06:18:45.648Z,3.72
2023-01-23T06:21:12.324Z,3.74
2023-01-23T06:23:38.832Z,3.72
2023-01-23T06:26:05.582Z,3.73
2023-01-23T06:28:32.048Z,3.72
2023-01-23T06:31:03.903Z,3.72
2023-01-23T06:33:31.028Z,3.74
2023-01-23T06:36:01.661Z,3.72
2023-01-23T06:38:29.169Z,3.72
2023-01-23T06:40:55.668Z,3.72
2023-01-23T06:43:23.164Z,3.72
2023-01-23T06:45:49.602Z,3.72
2023-01-23T06:48:17.076Z,3.76
2023-01-23T06:50:44.002Z,3.74
2023-01-23T06:53:14.541Z,3.79
2023-01-23T06:55:41.005Z,3.78
2023-01-23T06:58:07.682Z,3.76
2023-01-23T07:00:34.433Z,3.76
2023-01-23T07:03:03.833Z,3.79
2023-01-23T07:05:31.514Z,3.77
2023-01-23T07:07:58.011Z,3.77
2023-01-23T07:10:26.289Z,3.76
2023-01-23T07:12:52.733Z,3.74
2023-01-23T07:15:19.212Z,3.74
2023-01-23T07:17:45.704Z,3.75
2023-01-23T07:20:12.484Z,3.74
2023-01-23T07:22:38.955Z,3.77
2023-01-23T07:25:05.896Z,3.78
2023-01-23T07:27:33.174Z,3.79
2023-01-23T07:29:59.659Z,3.74
2023-01-23T07:32:26.125Z,3.78
2023-01-23T07:34:53.158Z,3.77
2023-01-23T07:37:19.627Z,3.77
2023-01-23T07:39:46.056Z,3.79
2023-01-23T07:42:12.523Z,3.82
2023-01-23T07:44:39.074Z,3.82
2023-01-23T07:47:05.581Z,3.86
2023-01-23T07:49:32.058Z,3.89
2023-01-23T07:51:58.534Z,3.87
2023-01-23T07:54:25.039Z,3.90
2023-01-23T07:56:51.510Z,3.90
2023-01-23T07:59:17.996Z,3.87
2023-01-23T08:01:44.729Z,3.85
2023-01-23T08:04:11.270Z,3.90
2023-01-23T08:06:38.179Z,3.90
2023-01-23T08:09:04.715Z,3.90
2023-01-23T08:11:33.499Z,3.91
2023-01-23T08:14:00.899Z,3.89
2023-01-23T08:16:27.968Z,3.88
2023-01-23T08:18:54.543Z,3.92
2023-01-23T08:21:21.466Z,3.93
2023-01-23T08:23:47.957Z,3.93
2023-01-23T08:26:16.664Z,3.96
2023-01-23T08:28:44.479Z,3.96
2023-01-23T08:31:12.632Z,3.97
2023-01-23T08:33:39.612Z,3.96
2023-01-23T08:36:09.520Z,3.97
2023-01-23T08:38:37.547Z,4.01
2023-01-23T08:41:04.313Z,3.99
2023-01-23T08:43:31.755Z,3.98
2023-01-23T08:45:59.433Z,3.95
2023-01-23T08:48:27.351Z,3.95
2023-01-23T08:51:00.882Z,3.97
2023-01-23T08:53:27.958Z,3.93
2023-01-23T08:55:59.084Z,3.98
2023-01-23T08:58:25.929Z,4.01
2023-01-23T09:00:52.422Z,4.02
2023-01-23T09:03:18.985Z,3.96
2023-01-23T09:05:45.441Z,4.00
2023-01-23T09:08:11.961Z,4.01
2023-01-23T09:10:38.507Z,4.03
2023-01-23T09:13:05.315Z,4.04
2023-01-23T09:15:32.409Z,4.06
2023-01-23T09:17:58.960Z,4.11
2023-01-23T09:20:29.190Z,4.12
2023-01-23T09:22:55.708Z,4.14
2023-01-23T09:25:22.262Z,4.17
2023-01-23T09:27:48.852Z,4.20
2023-01-23T09:30:15.664Z,4.28
2023-01-23T09:32:42.112Z,4.28
2023-01-23T09:35:09.012Z,4.36
2023-01-23T09:37:58.410Z,4.34
2023-01-23T09:40:28.328Z,4.42
2023-01-23T09:42:58.458Z,4.47
2023-01-23T09:45:27.500Z,4.51
2023-01-23T09:48:18.772Z,4.52
2023-01-23T09:50:59.271Z,4.55
2023-01-23T09:53:28.852Z,4.58
2023-01-23T09:56:14.524Z,4.59
2023-01-23T09:58:44.919Z,4.59
2023-01-23T10:01:13.465Z,4.60
2023-01-23T10:03:48.156Z,4.65
2023-01-23T10:06:25.333Z,4.66
2023-01-23T10:08:54.680Z,4.70
2023-01-23T10:11:38.661Z,4.73
2023-01-23T10:14:29.485Z,4.73
2023-01-23T10:17:20.720Z,4.74
2023-01-23T10:20:25.228Z,4.74
2023-01-23T10:23:15.790Z,4.71
2023-01-23T10:25:42.898Z,4.75
2023-01-23T10:28:27.503Z,4.78
2023-01-23T10:31:00.777Z,4.80
2023-01-23T10:33:40.603Z,4.74
2023-01-23T10:36:48.020Z,4.81
2023-01-23T10:39:26.854Z,4.86
2023-01-23T10:42:01.473Z,4.86
2023-01-23T10:44:28.385Z,4.93
2023-01-23T10:47:00.466Z,4.98
2023-01-23T10:49:30.382Z,4.98
2023-01-23T10:51:57.681Z,5.05
2023-01-23T10:54:33.906Z,5.10
2023-01-23T10:57:03.438Z,5.19
2023-01-23T10:59:39.784Z,5.24
2023-01-23T11:02:15.960Z,5.34
2023-01-23T11:04:45.351Z,5.38
2023-01-23T11:07:16.598Z,5.41
2023-01-23T11:09:51.413Z,5.43
2023-01-23T11:12:22.601Z,5.35
2023-01-23T11:14:49.403Z,5.34
2023-01-23T11:17:20.486Z,5.33
2023-01-23T11:19:51.605Z,5.34
2023-01-23T11:22:28.864Z,5.31
2023-01-23T11:24:56.039Z,5.26
2023-01-23T11:27:29.812Z,5.25
2023-01-23T11:30:02.228Z,5.25
2023-01-23T11:32:33.191Z,5.29
2023-01-23T11:35:12.923Z,5.27
2023-01-23T11:37:41.046Z,5.29
2023-01-23T11:40:13.185Z,5.35
2023-01-23T11:42:41.911Z,5.38
2023-01-23T11:45:29.552Z,5.44
2023-01-23T11:48:14.663Z,5.52
2023-01-23T11:50:55.294Z,5.55
2023-01-23T11:53:45.409Z,5.59
2023-01-23T11:56:43.833Z,5.66
2023-01-23T11:59:38.017Z,5.73
2023-01-23T12:02:43.327Z,5.86
2023-01-23T12:05:24.851Z,5.94
2023-01-23T12:08:07.493Z,6.01
2023-01-23T12:10:54.079Z,6.03
2023-01-23T12:13:38.554Z,6.08
2023-01-23T12:16:28.834Z,6.07
2023-01-23T12:18:55.312Z,6.09
2023-01-23T12:21:27.559Z,6.16
2023-01-23T12:23:54.025Z,6.18
2023-01-23T12:26:22.631Z,6.08
2023-01-23T12:29:22.205Z,6.12
2023-01-23T12:31:54.793Z,6.02
2023-01-23T12:34:30.236Z,6.02
2023-01-23T12:37:35.673Z,5.95
2023-01-23T12:40:22.787Z,5.95
2023-01-23T12:43:04.729Z,5.96
2023-01-23T12:45:32.823Z,5.95
2023-01-23T12:48:11.539Z,5.93
2023-01-23T12:50:47.426Z,5.90
2023-01-23T12:53:18.548Z,5.93
2023-01-23T12:55:54.388Z,5.94
2023-01-23T12:58:23.543Z,5.91
2023-01-23T13:01:04.189Z,5.84
2023-01-23T13:04:01.529Z,5.82
2023-01-23T13:06:52.543Z,5.78
2023-01-23T13:09:38.029Z,5.73
2023-01-23T13:12:21.795Z,5.71
2023-01-23T13:15:10.596Z,5.65
2023-01-23T13:17:45.505Z,5.59
2023-01-23T13:20:54.679Z,5.53
2023-01-23T13:23:33.200Z,5.52
2023-01-23T13:26:22.978Z,5.50
2023-01-23T13:28:53.911Z,5.43
2023-01-23T13:31:34.556Z,5.39
2023-01-23T13:34:15.003Z,5.37
2023-01-23T13:36:47.044Z,5.32
2023-01-23T13:39:13.426Z,5.31
2023-01-23T13:41:39.857Z,5.30
2023-01-23T13:44:40.939Z,5.25
2023-01-23T14:24:50.180Z,5.18
2023-01-23T14:27:30.195Z,5.16
2023-01-23T14:30:20.154Z,5.14
2023-01-23T14:32:46.731Z,5.11
2023-01-23T14:35:25.485Z,5.11
2023-01-23T14:37:53.606Z,5.12
2023-01-23T14:40:27.793Z,5.11
2023-01-23T14:42:59.905Z,5.08
2023-01-23T14:45:32.224Z,5.07
2023-01-23T14:48:06.153Z,5.08
2023-01-23T14:50:33.794Z,5.11
2023-01-23T14:53:05.816Z,5.02
2023-01-23T14:55:37.793Z,5.06
2023-01-23T14:58:04.840Z,5.08
2023-01-23T15:00:32.387Z,5.08
2023-01-23T15:02:58.976Z,5.06
2023-01-23T15:05:28.102Z,5.07
2023-01-23T15:07:58.550Z,5.02
2023-01-23T15:10:28.510Z,5.07
2023-01-23T15:13:02.420Z,5.07
2023-01-23T15:15:30.532Z,5.05
2023-01-23T15:18:00.676Z,5.03
2023-01-23T15:20:30.843Z,5.06
2023-01-23T15:22:58.379Z,5.01
2023-01-23T15:25:33.595Z,5.00
2023-01-23T15:27:59.956Z,5.04
2023-01-23T15:30:35.516Z,5.03
2023-01-23T15:33:07.367Z,5.06
2023-01-23T15:35:38.005Z,5.05
2023-01-23T15:38:08.537Z,5.05
2023-01-23T15:40:38.148Z,5.05
2023-01-23T15:43:10.296Z,5.04
2023-01-23T15:45:36.836Z,5.01
2023-01-23T15:48:03.761Z,4.99
2023-01-23T15:50:30.418Z,5.01
2023-01-23T15:52:56.959Z,5.00
2023-01-23T15:55:26.523Z,4.97
2023-01-23T15:57:53.888Z,4.99
2023-01-23T16:00:25.834Z,4.96
2023-01-23T16:02:56.830Z,4.97
2023-01-23T16:05:30.068Z,4.96
2023-01-23T16:08:00.992Z,4.92
2023-01-23T16:10:33.788Z,4.94
2023-01-23T16:13:00.511Z,4.93
2023-01-23T16:15:30.039Z,4.93
2023-01-23T16:17:57.205Z,4.93
2023-01-23T16:20:28.382Z,4.90
2023-01-23T16:23:01.892Z,4.85
2023-01-23T16:25:44.071Z,4.89
2023-01-23T16:28:16.218Z,4.89
2023-01-23T16:30:42.895Z,4.88
2023-01-23T16:33:09.526Z,4.88
2023-01-23T16:35:36.426Z,4.87
2023-01-23T16:38:03.200Z,4.86
2023-01-23T16:40:33.074Z,4.88
2023-01-23T16:43:02.782Z,4.88
2023-01-23T16:45:31.172Z,4.88
2023-01-23T16:47:58.448Z,4.88
2023-01-23T16:50:37.059Z,4.84
2023-01-23T16:53:06.781Z,4.85
2023-01-23T16:55:37.905Z,4.85
2023-01-23T16:58:06.696Z,4.85
2023-01-23T17:00:35.401Z,4.87
2023-01-23T17:03:07.299Z,4.87
2023-01-23T17:05:33.832Z,4.87
2023-01-23T17:08:00.290Z,4.86
2023-01-23T17:10:37.869Z,4.84
2023-01-23T17:13:11.598Z,4.82
2023-01-23T17:15:38.176Z,4.84
2023-01-23T17:18:05.106Z,4.84
2023-01-23T17:20:31.884Z,4.83
2023-01-23T17:22:58.522Z,4.78
2023-01-23T17:25:26.954Z,4.73
2023-01-23T17:28:11.147Z,4.79
2023-01-23T17:30:40.071Z,4.79
2023-01-23T17:33:17.417Z,4.78
2023-01-23T17:35:44.653Z,4.83
2023-01-23T17:38:18.461Z,4.80
2023-01-23T17:40:45.387Z,4.66
2023-01-23T17:43:13.672Z,4.70
2023-01-23T17:45:42.823Z,4.80
2023-01-23T17:48:14.454Z,4.81
2023-01-23T17:50:46.055Z,4.82
2023-01-23T17:53:16.810Z,4.81
2023-01-23T17:55:46.952Z,4.77
2023-01-23T17:58:14.288Z,4.77
2023-01-23T18:00:42.978Z,4.72
2023-01-23T18:03:13.817Z,4.73
2023-01-23T18:05:40.323Z,4.78
2023-01-23T18:08:06.815Z,4.74
2023-01-23T18:10:34.904Z,4.78
2023-01-23T18:13:16.984Z,4.77
2023-01-23T18:16:08.091Z,4.81
2023-01-23T18:18:40.400Z,4.76
2023-01-23T18:21:14.706Z,4.78
2023-01-23T18:23:41.492Z,4.76
2023-01-23T18:26:36.911Z,4.78
2023-01-23T18:29:36.292Z,4.77
2023-01-23T18:32:33.643Z,4.80
2023-01-23T18:35:29.083Z,4.78
2023-01-23T18:38:00.555Z,4.78
2023-01-23T18:40:29.235Z,4.79
2023-01-23T18:43:18.887Z,4.72
2023-01-23T18:45:45.655Z,4.74
2023-01-23T18:48:24.605Z,4.72
2023-01-23T18:51:09.985Z,4.73
2023-01-23T18:54:07.063Z,4.74
2023-01-23T18:56:58.119Z,4.74
2023-01-23T18:59:50.725Z,4.78
2023-01-23T19:02:40.018Z,4.70
2023-01-23T19:05:18.462Z,4.74
2023-01-23T19:07:45.913Z,4.76
2023-01-23T19:10:18.021Z,4.77
2023-01-23T19:13:07.599Z,4.76
2023-01-23T19:15:37.090Z,4.79
2023-01-23T19:18:15.824Z,4.76
2023-01-23T19:21:09.330Z,4.77
2023-01-23T19:23:43.461Z,4.80
2023-01-23T19:26:13.248Z,4.80
2023-01-23T19:28:40.050Z,4.80
2023-01-23T19:31:12.247Z,4.74
2023-01-23T19:33:38.773Z,4.80
2023-01-23T19:36:11.091Z,4.79
2023-01-23T19:38:37.517Z,4.78
2023-01-23T19:41:05.064Z,4.77
2023-01-23T19:43:32.098Z,4.76
2023-01-23T19:45:59.834Z,4.74
2023-01-23T19:48:26.281Z,4.75
2023-01-23T19:50:52.824Z,4.70
2023-01-23T19:53:19.361Z,4.74
2023-01-23T19:55:45.916Z,4.74
2023-01-23T19:58:12.562Z,4.72
2023-01-23T20:00:39.007Z,4.72
2023-01-23T20:03:05.511Z,4.73
2023-01-23T20:05:32.428Z,4.69
2023-01-23T20:07:59.181Z,4.69
2023-01-23T20:10:25.677Z,4.70
2023-01-23T20:12:52.360Z,4.70
2023-01-23T20:15:21.555Z,4.67
2023-01-23T20:17:48.281Z,4.70
2023-01-23T20:20:15.204Z,4.67
2023-01-23T20:22:43.381Z,4.67
2023-01-23T20:25:15.082Z,4.68
2023-01-23T20:27:41.984Z,4.69
2023-01-23T20:30:13.669Z,4.68
2023-01-23T20:32:40.152Z,4.62
2023-01-23T20:35:06.838Z,4.64
2023-01-23T20:37:33.456Z,4.62
2023-01-23T20:40:00.039Z,4.61
2023-01-23T20:42:26.510Z,4.64
2023-01-23T20:44:53.005Z,4.60
2023-01-23T20:47:19.500Z,4.62
2023-01-23T20:49:45.961Z,4.58
2023-01-23T20:52:31.055Z,4.60
2023-01-23T20:54:57.685Z,4.62
2023-01-23T20:57:44.134Z,4.60
2023-01-23T21:00:11.308Z,4.60
2023-01-23T21:02:37.793Z,4.60
2023-01-23T21:05:04.428Z,4.58
2023-01-23T21:07:30.964Z,4.59
2023-01-23T21:09:57.417Z,4.59
2023-01-23T21:12:23.892Z,4.54
2023-01-23T21:14:50.414Z,4.57
2023-01-23T21:17:16.947Z,4.57
2023-01-23T21:19:44.567Z,4.62
2023-01-23T21:22:11.037Z,4.62
2023-01-23T21:24:37.688Z,4.56
2023-01-23T21:27:05.603Z,4.62
2023-01-23T21:29:32.727Z,4.56
2023-01-23T21:31:59.398Z,4.58
2023-01-23T21:34:26.375Z,4.55
2023-01-23T21:36:53.013Z,4.53
2023-01-23T21:39:20.010Z,4.55
2023-01-23T21:41:46.469Z,4.54
2023-01-23T21:44:13.301Z,4.53
2023-01-23T21:46:40.334Z,4.56
2023-01-23T21:49:06.969Z,4.54
2023-01-23T21:51:33.458Z,4.53
2023-01-23T21:54:00.012Z,4.52
2023-01-23T21:56:26.489Z,4.52
2023-01-23T21:58:53.349Z,4.53
2023-01-23T22:01:32.083Z,4.47
2023-01-23T22:04:04.772Z,4.45
2023-01-23T22:06:32.937Z,4.52
2023-01-23T22:08:59.800Z,4.47
2023-01-23T22:11:26.790Z,4.50
2023-01-23T22:13:53.865Z,4.53
2023-01-23T22:16:25.333Z,4.49
2023-01-23T22:18:55.007Z,4.51
2023-01-23T22:21:21.533Z,4.52
2023-01-23T22:23:48.010Z,4.54
2023-01-23T22:26:14.476Z,4.47
2023-01-23T22:28:40.982Z,4.49
2023-01-23T22:31:12.621Z,4.49
2023-01-23T22:33:41.496Z,4.50
2023-01-23T22:36:12.038Z,4.49
2023-01-23T22:38:38.553Z,4.47
2023-01-23T22:41:06.405Z,4.45
2023-01-23T22:43:34.287Z,4.45
2023-01-23T22:46:07.799Z,4.46
2023-01-23T22:48:35.630Z,4.46
2023-01-23T22:51:04.643Z,4.45
2023-01-23T22:53:31.628Z,4.44
2023-01-23T22:55:58.527Z,4.47
2023-01-23T22:58:25.325Z,4.50
2023-01-23T23:00:53.189Z,4.49
2023-01-23T23:03:21.036Z,4.49
2023-01-23T23:05:55.718Z,4.48
2023-01-23T23:08:22.155Z,4.49
2023-01-23T23:11:07.412Z,4.50
2023-01-23T23:13:38.686Z,4.50
2023-01-23T23:16:07.955Z,4.51
2023-01-23T23:22:22.109Z,4.49
2023-01-23T23:24:48.593Z,4.46
2023-01-23T23:27:15.070Z,4.46
2023-01-23T23:29:41.556Z,4.49
2023-01-23T23:32:08.091Z,4.42
2023-01-23T23:34:36.216Z,4.42
2023-01-23T23:37:03.628Z,4.46
2023-01-23T23:39:30.099Z,4.48
2023-01-23T23:41:56.690Z,4.48
2023-01-23T23:44:23.217Z,4.44
2023-01-23T23:46:49.690Z,4.46
2023-01-23T23:49:16.193Z,4.41
2023-01-23T23:51:42.683Z,4.40
2023-01-23T23:54:09.142Z,4.41
2023-01-23T23:56:35.649Z,4.41
2023-01-23T23:59:02.108Z,4.42
